Time;durP1;ratioP1;P1;durP2;ratioP2;P2;SDS_P1;SDS_P2;PMS_P1;PMS_P2;Temp;Humidity;BMP_temperature;BMP_pressure;BME280_temperature;BME280_humidity;BME280_pressure;Samples;Min_cycle;Max_cycle;Signal;HPM_P1;HPM_P2
2021/04/20 00:00:28;;;;;;;36.15;17.05;;;;;;;10.18;60.55;100965.44;4413479;32;20038;-74
2021/04/20 00:02:54;;;;;;;41.60;17.85;;;;;;;10.16;60.63;100970.69;4396947;32;20094;-73
2021/04/20 00:05:20;;;;;;;34.25;18.23;;;;;;;10.13;60.66;100961.88;4398875;32;20103;-73
2021/04/20 00:07:47;;;;;;;44.08;19.17;;;;;;;10.02;60.92;100961.25;4398441;32;20446;-75
2021/04/20 00:10:15;;;;;;;32.65;17.37;;;;;;;9.95;61.25;100961.38;4395718;32;20087;-73
2021/04/20 00:12:42;;;;;;;35.88;16.48;;;;;;;9.90;61.23;100961.06;4397035;32;20026;-74
2021/04/20 00:15:11;;;;;;;33.90;16.92;;;;;;;9.76;61.62;100961.34;4396269;32;20052;-75
2021/04/20 00:17:37;;;;;;;31.85;16.70;;;;;;;9.69;62.16;100955.81;4397571;32;21125;-74
2021/04/20 00:20:12;;;;;;;31.37;17.33;;;;;;;9.66;61.97;100954.66;4397084;32;20422;-73
2021/04/20 00:22:38;;;;;;;37.95;17.27;;;;;;;9.63;62.00;100944.28;4396560;32;20446;-73
2021/04/20 00:25:05;;;;;;;37.40;16.77;;;;;;;9.47;62.57;100961.00;4398570;32;20042;-73
2021/04/20 00:27:30;;;;;;;31.92;17.20;;;;;;;9.33;62.76;100955.59;4396366;32;20154;-73
2021/04/20 00:29:56;;;;;;;32.95;16.98;;;;;;;9.28;62.83;100958.91;4395025;32;20452;-73
2021/04/20 00:32:22;;;;;;;31.37;16.52;;;;;;;9.24;62.91;100943.34;4397602;32;20480;-73
2021/04/20 00:34:47;;;;;;;34.28;17.17;;;;;;;9.11;63.47;100959.19;4398839;32;20417;-74
2021/04/20 00:37:13;;;;;;;33.40;16.00;;;;;;;9.12;63.38;100950.34;4398907;32;20083;-75
2021/04/20 00:39:39;;;;;;;36.47;16.15;;;;;;;9.05;63.79;100953.22;4398212;32;20127;-74
2021/04/20 00:42:06;;;;;;;39.75;17.65;;;;;;;9.05;63.75;100952.44;4396573;32;20086;-74
2021/04/20 00:44:34;;;;;;;42.55;18.25;;;;;;;9.01;63.98;100949.69;4400529;32;20035;-75
2021/04/20 00:47:00;;;;;;;39.85;17.70;;;;;;;8.99;64.15;100948.53;4402180;32;20041;-74
2021/04/20 00:49:27;;;;;;;33.92;16.33;;;;;;;8.95;64.27;100953.38;4398997;32;20094;-74
2021/04/20 00:51:54;;;;;;;37.03;17.95;;;;;;;8.93;64.30;100951.00;4386725;32;20080;-75
2021/04/20 00:54:20;;;;;;;32.70;16.92;;;;;;;8.91;64.31;100947.03;4400992;32;20464;-75
2021/04/20 00:56:46;;;;;;;31.15;17.02;;;;;;;8.87;64.41;100947.06;4399900;32;20068;-74
2021/04/20 00:59:13;;;;;;;41.70;16.77;;;;;;;8.84;64.59;100949.94;4399089;32;20042;-74
2021/04/20 01:01:39;;;;;;;35.92;17.02;;;;;;;8.87;64.35;100946.28;4398161;32;20114;-72
2021/04/20 01:04:08;;;;;;;36.30;17.33;;;;;;;8.75;64.65;100946.84;4398911;32;20086;-74
2021/04/20 01:06:34;;;;;;;31.00;15.05;;;;;;;8.73;64.56;100944.47;4399800;32;20082;-74
2021/04/20 01:09:00;;;;;;;31.67;15.82;;;;;;;8.67;64.81;100945.34;4397642;32;20116;-72
2021/04/20 01:11:26;;;;;;;33.47;15.95;;;;;;;8.59;65.22;100953.06;4397959;32;20035;-72
2021/04/20 01:13:52;;;;;;;38.28;17.10;;;;;;;8.58;64.95;100939.44;4400993;32;20068;-73
2021/04/20 01:16:19;;;;;;;31.35;15.68;;;;;;;8.64;64.85;100940.56;4399298;32;20042;-75
2021/04/20 01:18:45;;;;;;;32.78;16.90;;;;;;;8.50;65.57;100935.16;4401025;32;20077;-73
2021/04/20 01:21:13;;;;;;;29.87;15.65;;;;;;;8.49;65.58;100936.34;4399840;32;20038;-73
2021/04/20 01:23:52;;;;;;;31.62;16.52;;;;;;;8.46;65.95;100935.19;4400465;32;20030;-74
2021/04/20 01:26:23;;;;;;;33.80;17.37;;;;;;;8.43;65.75;100936.03;4400347;32;20064;-73
2021/04/20 01:28:48;;;;;;;33.33;16.42;;;;;;;8.44;65.68;100943.22;4400646;32;20073;-75
2021/04/20 01:31:16;;;;;;;34.88;16.98;;;;;;;8.46;65.32;100932.37;4398921;32;20034;-73
2021/04/20 01:33:43;;;;;;;33.00;17.33;;;;;;;8.51;65.37;100931.13;4400320;32;20450;-73
2021/04/20 01:36:11;;;;;;;38.28;17.00;;;;;;;8.30;66.11;100931.38;4400070;32;20399;-74
2021/04/20 01:38:42;;;;;;;33.03;16.52;;;;;;;8.34;65.99;100934.97;4398630;32;20355;-72
2021/04/20 01:41:08;;;;;;;33.70;16.10;;;;;;;8.20;66.45;100933.84;4400037;32;20458;-75
2021/04/20 01:43:34;;;;;;;33.60;15.40;;;;;;;8.20;66.10;100936.66;4400398;32;20061;-74
2021/04/20 01:46:00;;;;;;;34.67;16.02;;;;;;;8.18;66.16;100930.69;4397904;32;20082;-74
2021/04/20 01:48:27;;;;;;;35.33;16.35;;;;;;;8.12;66.57;100934.38;4400358;32;20054;-72
2021/04/20 01:50:54;;;;;;;36.72;15.77;;;;;;;8.16;66.19;100937.91;4400720;32;20651;-74
2021/04/20 01:53:20;;;;;;;33.03;15.15;;;;;;;8.13;66.33;100931.13;4399356;32;20061;-73
2021/04/20 01:55:46;;;;;;;29.75;15.05;;;;;;;8.14;66.12;100934.75;4398076;32;20077;-74
2021/04/20 01:58:12;;;;;;;31.00;15.60;;;;;;;8.20;65.97;100931.06;4398194;32;20041;-73
2021/04/20 02:00:41;;;;;;;38.30;15.73;;;;;;;8.09;66.17;100930.41;4399864;32;20127;-73
2021/04/20 02:03:08;;;;;;;29.45;16.12;;;;;;;7.99;66.87;100928.50;4401596;32;20434;-73
2021/04/20 02:05:36;;;;;;;32.85;15.10;;;;;;;8.01;66.69;100926.06;4398857;32;20067;-72
2021/04/20 02:08:03;;;;;;;33.67;15.68;;;;;;;8.19;65.79;100925.88;4397713;32;20370;-72
2021/04/20 02:10:29;;;;;;;30.10;14.43;;;;;;;8.11;66.59;100918.75;4399944;32;20077;-74
2021/04/20 02:12:55;;;;;;;32.63;16.48;;;;;;;8.15;66.35;100930.72;4398306;32;20090;-75
2021/04/20 02:15:21;;;;;;;29.70;14.73;;;;;;;8.11;66.46;100924.38;4398612;32;20041;-74
2021/04/20 02:17:48;;;;;;;31.00;14.85;;;;;;;8.11;66.31;100913.16;4399217;32;20415;-73
2021/04/20 02:20:14;;;;;;;32.22;15.73;;;;;;;8.14;66.34;100915.13;4399741;32;20054;-74
2021/04/20 02:22:44;;;;;;;35.50;16.40;;;;;;;8.11;66.14;100913.94;4398920;32;20085;-73
2021/04/20 02:25:13;;;;;;;34.92;16.10;;;;;;;7.98;66.58;100917.72;4398064;32;20102;-73
2021/04/20 02:27:40;;;;;;;32.38;15.63;;;;;;;8.08;66.64;100914.00;4397099;32;20449;-73
2021/04/20 02:30:09;;;;;;;36.00;15.68;;;;;;;7.97;66.69;100911.31;4397652;32;20058;-74
2021/04/20 02:32:36;;;;;;;29.40;15.32;;;;;;;7.96;66.87;100906.94;4397053;32;20050;-74
2021/04/20 02:35:04;;;;;;;33.20;15.88;;;;;;;7.99;66.72;100908.09;4398650;32;20088;-74
2021/04/20 02:37:30;;;;;;;33.88;16.20;;;;;;;8.00;66.57;100915.28;4398521;32;20388;-74
2021/04/20 02:39:56;;;;;;;34.63;16.50;;;;;;;7.95;66.67;100918.53;4384751;32;20454;-73
2021/04/20 02:42:24;;;;;;;30.17;14.55;;;;;;;7.92;66.61;100911.75;4400785;32;20034;-72
2021/04/20 02:44:50;;;;;;;35.95;16.40;;;;;;;7.92;66.71;100913.78;4397414;32;20086;-72
2021/04/20 02:47:16;;;;;;;36.75;15.50;;;;;;;7.91;66.79;100914.97;4399819;32;20059;-73
2021/04/20 02:49:42;;;;;;;31.27;15.05;;;;;;;7.90;66.82;100919.78;4396020;32;20046;-72
2021/04/20 02:52:09;;;;;;;30.83;15.27;;;;;;;7.88;66.96;100916.59;4397981;32;20365;-73
2021/04/20 02:54:35;;;;;;;38.58;16.27;;;;;;;7.88;66.87;100904.59;4399938;32;20440;-74
2021/04/20 02:57:02;;;;;;;30.70;15.93;;;;;;;7.80;66.99;100900.28;4394705;32;20073;-73
2021/04/20 02:59:30;;;;;;;28.92;14.45;;;;;;;7.87;66.91;100906.62;4397218;32;20077;-73
2021/04/20 03:01:58;;;;;;;27.15;14.68;;;;;;;7.80;67.06;100909.47;4395599;32;20097;-73
2021/04/20 03:04:24;;;;;;;32.55;14.40;;;;;;;7.81;66.87;100907.47;4398542;32;20042;-74
2021/04/20 03:06:50;;;;;;;35.00;16.35;;;;;;;7.79;66.88;100904.28;4398186;32;20066;-72
2021/04/20 03:09:16;;;;;;;29.45;14.63;;;;;;;7.83;66.66;100905.06;4398386;32;20112;-73
2021/04/20 03:11:54;;;;;;;31.42;15.70;;;;;;;7.82;66.92;100903.44;4397026;32;20143;-72
2021/04/20 03:14:21;;;;;;;28.15;14.85;;;;;;;7.86;66.60;100910.59;4386221;32;20093;-73
2021/04/20 03:16:47;;;;;;;27.30;15.15;;;;;;;7.46;67.88;100900.19;4398227;32;20084;-73
2021/04/20 03:19:13;;;;;;;36.30;16.15;;;;;;;7.41;68.44;100905.44;4397535;32;20085;-72
2021/04/20 03:21:41;;;;;;;30.25;15.20;;;;;;;7.30;68.48;100899.16;4398401;32;20095;-73
2021/04/20 03:24:08;;;;;;;29.70;15.88;;;;;;;7.64;67.64;100903.62;4399593;32;20064;-73
2021/04/20 03:29:11;;;;;;;40.00;16.90;;;;;;;7.72;67.17;100893.97;3982038;32;15153132;-72
2021/04/20 03:31:40;;;;;;;32.92;14.55;;;;;;;7.68;67.21;100904.41;4439811;32;20055;-74
2021/04/20 03:34:14;;;;;;;34.97;15.27;;;;;;;7.43;68.16;100903.03;4436723;32;20095;-72
2021/04/20 03:36:45;;;;;;;28.40;14.05;;;;;;;7.63;67.77;100899.25;4434458;32;20075;-73
2021/04/20 03:39:17;;;;;;;31.60;14.75;;;;;;;7.63;67.70;100906.84;4436496;32;20044;-73
2021/04/20 03:41:50;;;;;;;27.10;14.05;;;;;;;7.75;67.06;100909.13;4436062;32;20397;-74
2021/04/20 03:44:23;;;;;;;36.92;14.02;;;;;;;7.70;67.43;100901.19;4433804;32;20172;-73
2021/04/20 03:46:52;;;;;;;31.33;15.13;;;;;;;7.58;67.55;100893.31;4442087;32;20033;-72
2021/04/20 03:49:22;;;;;;;31.73;15.07;;;;;;;7.34;68.34;100894.31;4433878;32;20025;-72
2021/04/20 03:51:50;;;;;;;31.27;14.68;;;;;;;7.54;67.70;100892.53;4435503;32;20029;-73
2021/04/20 03:54:17;;;;;;;35.28;15.45;;;;;;;7.39;68.28;100888.25;4437791;32;20161;-71
2021/04/20 03:56:46;;;;;;;29.67;14.57;;;;;;;7.23;68.69;100886.00;4436571;32;20069;-74
2021/04/20 03:59:14;;;;;;;35.30;14.85;;;;;;;7.21;68.64;100890.44;4434862;32;20085;-72
2021/04/20 04:01:43;;;;;;;30.55;14.68;;;;;;;7.21;68.46;100882.81;4427826;32;20052;-74
2021/04/20 04:04:12;;;;;;;31.17;15.68;;;;;;;7.17;68.68;100886.84;4425385;32;20074;-72
2021/04/20 04:06:40;;;;;;;34.67;16.17;;;;;;;7.35;68.05;100893.09;4422280;32;20388;-72
2021/04/20 04:09:09;;;;;;;34.60;16.12;;;;;;;7.17;68.40;100890.47;4423239;32;20053;-74
2021/04/20 04:11:38;;;;;;;34.40;14.60;;;;;;;7.08;68.64;100884.53;4423066;32;20443;-71
2021/04/20 04:14:06;;;;;;;32.92;15.38;;;;;;;7.16;68.76;100885.28;4421299;32;20056;-71
2021/04/20 04:16:33;;;;;;;36.50;15.85;;;;;;;7.00;69.05;100890.59;4423378;32;20097;-74
2021/04/20 04:19:02;;;;;;;31.55;15.75;;;;;;;6.87;69.51;100890.28;4420431;32;20026;-73
2021/04/20 04:21:40;;;;;;;38.85;16.52;;;;;;;6.94;69.31;100886.66;4422212;32;20069;-72
2021/04/20 04:24:09;;;;;;;36.05;15.65;;;;;;;6.98;69.47;100890.19;4424949;32;20062;-71
2021/04/20 04:26:36;;;;;;;33.20;15.55;;;;;;;6.97;69.82;100889.41;4420261;32;20111;-72
2021/04/20 04:29:03;;;;;;;36.17;15.43;;;;;;;7.02;69.59;100888.97;4421338;32;20078;-72
2021/04/20 04:31:32;;;;;;;31.37;14.20;;;;;;;7.00;69.60;100896.97;4423077;32;20417;-74
2021/04/20 04:34:00;;;;;;;33.55;14.98;;;;;;;6.86;70.07;100899.06;4423190;32;20038;-73
2021/04/20 04:36:27;;;;;;;36.58;15.10;;;;;;;7.04;69.43;100894.16;4423308;32;20038;-72
2021/04/20 04:38:53;;;;;;;31.77;14.80;;;;;;;7.10;69.18;100892.50;4422589;32;20099;-74
2021/04/20 04:41:20;;;;;;;37.15;16.37;;;;;;;7.08;69.16;100894.91;4412115;32;20042;-72
2021/04/20 04:43:46;;;;;;;34.45;15.15;;;;;;;7.07;69.39;100891.34;4412888;32;20079;-74
2021/04/20 04:46:13;;;;;;;35.53;16.35;;;;;;;7.10;69.34;100890.53;4414056;32;20407;-73
2021/04/20 04:48:39;;;;;;;45.88;16.98;;;;;;;7.11;69.13;100896.91;4413010;32;20097;-73
2021/04/20 04:51:06;;;;;;;42.03;17.02;;;;;;;6.92;69.65;100901.03;4410874;32;20730;-74
2021/04/20 04:53:33;;;;;;;41.22;17.20;;;;;;;6.80;70.17;100898.72;4411430;32;20112;-73
2021/04/20 04:56:02;;;;;;;39.08;16.87;;;;;;;6.86;70.05;100899.06;4410607;32;20357;-74
2021/04/20 04:58:30;;;;;;;35.75;16.52;;;;;;;6.77;70.23;100899.53;4409834;32;20061;-74
2021/04/20 05:00:59;;;;;;;30.50;16.25;;;;;;;6.97;69.20;100897.00;4414385;32;20114;-73
2021/04/20 05:03:25;;;;;;;31.75;17.02;;;;;;;6.98;69.36;100893.00;4414538;32;20023;-72
2021/04/20 05:05:56;;;;;;;34.38;16.45;;;;;;;6.99;69.27;100897.38;4411881;32;20162;-73
2021/04/20 05:08:22;;;;;;;40.28;16.60;;;;;;;7.04;69.07;100894.16;4412048;32;20042;-73
2021/04/20 05:10:48;;;;;;;38.33;16.23;;;;;;;7.05;69.14;100892.94;4409742;32;20116;-72
2021/04/20 05:13:14;;;;;;;36.42;17.37;;;;;;;7.06;69.09;100898.13;4411286;32;20038;-73
2021/04/20 05:15:40;;;;;;;37.63;17.05;;;;;;;7.07;69.16;100890.53;4413419;32;20068;-74
2021/04/20 05:18:10;;;;;;;30.77;15.80;;;;;;;7.10;69.04;100893.31;4412749;32;20042;-73
2021/04/20 05:20:41;;;;;;;34.40;16.75;;;;;;;6.95;69.89;100889.03;4411155;32;20406;-74
2021/04/20 05:23:08;;;;;;;33.97;16.27;;;;;;;6.94;70.03;100900.63;4414605;32;20030;-73
2021/04/20 05:25:34;;;;;;;35.35;15.63;;;;;;;7.10;69.22;100898.13;4409581;32;20161;-72
2021/04/20 05:28:00;;;;;;;29.05;16.37;;;;;;;7.00;69.50;100901.78;4411957;32;20084;-72
2021/04/20 05:30:27;;;;;;;35.15;16.12;;;;;;;6.99;69.39;100898.19;4408034;32;20077;-73
2021/04/20 05:32:53;;;;;;;37.67;16.27;;;;;;;7.09;68.98;100904.94;4414946;32;20034;-72
2021/04/20 05:35:21;;;;;;;41.90;17.02;;;;;;;7.09;68.70;100905.69;4407806;32;20483;-74
2021/04/20 05:37:48;;;;;;;33.67;17.15;;;;;;;7.07;68.92;100908.13;4411582;32;20030;-74
2021/04/20 05:40:17;;;;;;;42.17;16.65;;;;;;;7.19;68.75;100909.62;4408182;32;20467;-72
2021/04/20 05:42:44;;;;;;;34.88;16.15;;;;;;;7.29;68.35;100914.34;4409629;32;20097;-72
2021/04/20 05:45:13;;;;;;;37.80;16.77;;;;;;;7.23;68.50;100913.19;4412191;32;20639;-73
2021/04/20 05:47:40;;;;;;;37.45;17.95;;;;;;;7.30;68.46;100922.34;4410252;32;20081;-72
2021/04/20 05:50:07;;;;;;;31.23;15.35;;;;;;;7.32;68.41;100924.72;4409483;32;20452;-73
2021/04/20 05:52:34;;;;;;;43.33;18.37;;;;;;;7.52;67.80;100922.97;4407641;32;20031;-74
2021/04/20 05:55:01;;;;;;;39.28;17.52;;;;;;;7.63;67.09;100920.84;4407898;32;20100;-73
2021/04/20 05:57:27;;;;;;;35.03;17.40;;;;;;;7.62;67.67;100925.69;4413047;32;20050;-72
2021/04/20 05:59:55;;;;;;;35.20;17.08;;;;;;;7.75;66.90;100923.12;4413125;32;20127;-72
2021/04/20 06:02:21;;;;;;;35.92;15.55;;;;;;;7.81;66.67;100935.50;4411207;32;20328;-73
2021/04/20 06:04:50;;;;;;;34.28;16.02;;;;;;;7.90;66.50;100933.81;4410789;32;20450;-74
2021/04/20 06:07:17;;;;;;;32.58;16.73;;;;;;;7.93;66.47;100937.78;4413086;32;20073;-72
2021/04/20 06:09:44;;;;;;;38.70;17.83;;;;;;;8.05;66.24;100928.84;4413328;32;20044;-73
2021/04/20 06:12:11;;;;;;;35.80;17.45;;;;;;;8.18;66.15;100933.50;4410922;32;20074;-72
2021/04/20 06:14:40;;;;;;;37.25;17.87;;;;;;;8.31;65.97;100933.00;4409810;32;20027;-71
2021/04/20 06:17:08;;;;;;;36.20;17.50;;;;;;;8.44;65.54;100934.81;4409444;32;20089;-71
2021/04/20 06:19:35;;;;;;;32.85;16.70;;;;;;;8.61;64.82;100933.81;4405787;32;20095;-71
2021/04/20 06:22:02;;;;;;;32.65;16.67;;;;;;;8.65;64.89;100942.97;4412860;32;20038;-73
2021/04/20 06:24:30;;;;;;;34.95;16.83;;;;;;;8.93;64.47;100934.16;4406007;32;20038;-71
2021/04/20 06:26:57;;;;;;;40.50;17.90;;;;;;;9.03;63.75;100944.44;4405721;32;20104;-72
2021/04/20 06:29:23;;;;;;;37.15;16.92;;;;;;;9.20;63.57;100937.75;4407797;32;20373;-72
2021/04/20 06:31:49;;;;;;;38.45;17.90;;;;;;;9.38;63.07;100943.09;4410836;32;20030;-73
2021/04/20 06:34:15;;;;;;;35.35;17.83;;;;;;;9.50;62.62;100929.25;4400492;32;20065;-72
2021/04/20 06:36:42;;;;;;;39.88;18.37;;;;;;;9.46;62.93;100938.97;4411001;32;20034;-73
2021/04/20 06:39:08;;;;;;;42.70;19.67;;;;;;;9.56;62.42;100932.37;4406762;32;20077;-74
2021/04/20 06:41:38;;;;;;;41.37;17.40;;;;;;;9.72;62.32;100930.47;4402597;32;20133;-73
2021/04/20 06:44:12;;;;;;;41.10;20.75;;;;;;;9.81;61.84;100939.16;4407368;32;20050;-73
2021/04/20 06:46:43;;;;;;;42.88;19.73;;;;;;;9.95;61.64;100930.44;4400288;32;20056;-74
2021/04/20 06:49:15;;;;;;;41.63;19.12;;;;;;;10.09;61.11;100935.03;4400178;32;20038;-74
2021/04/20 06:51:45;;;;;;;43.65;19.58;;;;;;;10.12;61.04;100928.56;4404626;32;20071;-74
2021/04/20 06:54:34;;;;;;;43.50;20.60;;;;;;;10.49;59.86;100927.44;4400271;32;20127;-74
2021/04/20 06:57:10;;;;;;;44.47;19.85;;;;;;;10.41;59.59;100931.63;4396172;32;20484;-72
2021/04/20 07:00:03;;;;;;;38.72;19.67;;;;;;;10.54;59.88;100936.16;4403575;32;20127;-73
2021/04/20 07:05:20;;;;;;;41.22;20.35;;;;;;;10.81;58.80;100931.16;3973942;32;15024006;-75
2021/04/20 07:13:07;;;;;;;44.75;21.25;;;;;;;11.70;56.61;100944.75;3983341;32;15022365;-74
2021/04/20 07:15:37;;;;;;;48.92;23.42;;;;;;;11.70;56.61;100944.75;4447079;32;20184;-74
2021/04/20 07:28:58;;;;;;;42.28;21.87;;;;;;;12.32;54.14;100946.31;3993952;31;15018879;-72
2021/04/20 07:40:10;;;;;;;55.42;23.67;;;;;;;12.42;54.16;100948.84;3979351;32;15022516;-73
2021/04/20 07:45:43;;;;;;;46.33;22.95;;;;;;;13.15;52.05;100954.34;3970532;32;15022524;-73
2021/04/20 07:48:34;;;;;;;55.80;24.55;;;;;;;13.15;52.05;100954.34;4418859;32;20521;-74
2021/04/20 07:51:08;;;;;;;57.40;25.12;;;;;;;12.91;52.57;100946.59;4415572;32;20073;-73
2021/04/20 07:53:55;;;;;;;53.42;23.95;;;;;;;13.11;52.10;100942.37;4419739;32;20034;-74
2021/04/20 07:59:03;;;;;;;50.70;23.67;;;;;;;14.04;49.75;100944.50;4006343;31;15015090;-73
2021/04/20 08:06:46;;;;;;;55.33;25.42;;;;;;;14.42;49.09;100944.41;3980584;32;15021626;-74
2021/04/20 08:09:18;;;;;;;63.67;27.77;;;;;;;14.42;49.09;100944.41;4428484;32;20093;-73
2021/04/20 08:14:33;;;;;;;49.47;24.80;;;;;;;15.19;47.61;100942.22;3971918;32;15025778;-73
2021/04/20 08:17:07;;;;;;;52.28;26.23;;;;;;;15.19;47.61;100942.22;4417152;32;20335;-73
2021/04/20 08:22:14;;;;;;;69.75;28.12;;;;;;;15.71;45.94;100944.97;3971654;31;15707883;-74
2021/04/20 08:24:47;;;;;;;57.03;29.77;;;;;;;15.71;45.94;100944.97;4449098;32;20340;-74
2021/04/20 08:27:23;;;;;;;61.17;28.62;;;;;;;15.16;46.33;100937.47;4437200;32;20100;-74
2021/04/20 08:29:51;;;;;;;;;;;;;;;15.28;46.32;100939.41;4446224;32;20041;-75
2021/04/20 08:32:21;;;;;;;65.57;29.80;;;;;;;15.54;46.00;100934.34;4450457;32;19968;-74
2021/04/20 08:34:56;;;;;;;69.05;32.33;;;;;;;15.75;45.63;100941.97;4449959;32;20073;-74
2021/04/20 08:40:37;;;;;;;63.17;30.27;;;;;;;17.17;42.49;100953.00;3983754;32;15026757;-72
2021/04/20 08:45:54;;;;;;;64.47;30.75;;;;;;;18.34;40.34;100948.72;3971359;32;15025663;-74
2021/04/20 08:48:35;;;;;;;59.30;30.60;;;;;;;18.34;40.34;100948.72;4417897;32;20505;-73
2021/04/20 08:51:12;;;;;;;61.28;28.87;;;;;;;18.26;39.88;100944.69;4417850;32;20081;-73
2021/04/20 08:53:53;;;;;;;60.72;27.40;;;;;;;18.58;39.25;100945.87;4417584;32;20605;-73
2021/04/20 08:56:29;;;;;;;55.10;26.98;;;;;;;19.01;38.46;100943.06;4420169;32;20076;-72
2021/04/20 09:07:25;;;;;;;55.10;25.02;;;;;;;20.21;35.96;100945.47;3975330;32;15023260;-74
2021/04/20 09:09:53;;;;;;;41.95;22.67;;;;;;;20.13;35.89;100932.13;4426553;32;20156;-75
2021/04/20 09:12:21;;;;;;;56.15;24.83;;;;;;;20.47;35.66;100940.62;4427974;32;20068;-73
2021/04/20 09:14:49;;;;;;;49.90;23.85;;;;;;;20.42;35.81;100949.91;4428375;32;20065;-73
2021/04/20 09:17:20;;;;;;;51.90;25.00;;;;;;;20.81;35.21;100944.63;4427143;32;20060;-74
2021/04/20 09:19:54;;;;;;;58.13;24.37;;;;;;;20.64;35.28;100938.72;4425534;32;20181;-74
2021/04/20 09:25:10;;;;;;;52.22;23.35;;;;;;;21.39;34.53;100936.31;3953495;32;15017058;-74
2021/04/20 09:27:45;;;;;;;60.42;25.85;;;;;;;21.39;34.53;100936.31;4414255;32;20114;-73
2021/04/20 09:30:15;;;;;;;52.80;24.35;;;;;;;20.87;35.14;100939.75;4414827;32;20153;-73
2021/04/20 09:32:49;;;;;;;59.85;25.33;;;;;;;21.03;34.98;100942.00;4412658;32;20131;-73
2021/04/20 09:35:16;;;;;;;55.85;26.85;;;;;;;21.00;35.03;100940.16;4410937;32;20486;-74
2021/04/20 09:37:43;;;;;;;58.22;26.48;;;;;;;21.05;34.90;100934.47;4414351;32;20991;-73
2021/04/20 09:40:14;;;;;;;54.45;27.15;;;;;;;21.25;34.66;100937.25;4412984;32;20043;-73
2021/04/20 09:42:42;;;;;;;47.10;26.40;;;;;;;21.45;34.44;100942.13;4411781;32;20033;-73
2021/04/20 09:45:15;;;;;;;54.92;26.98;;;;;;;21.12;34.85;100941.81;4411811;32;20093;-73
2021/04/20 09:48:08;;;;;;;52.00;25.45;;;;;;;21.34;34.52;100939.94;4413795;32;20172;-73
2021/04/20 09:58:40;;;;;;;48.47;23.60;;;;;;;23.24;31.97;100938.22;3994074;31;15021779;-73
2021/04/20 10:01:33;;;;;;;49.70;21.60;;;;;;;23.24;31.97;100938.22;4441309;32;20621;-74
2021/04/20 10:04:07;;;;;;;46.25;21.23;;;;;;;23.09;31.67;100934.78;4447938;32;20477;-74
2021/04/20 10:07:06;;;;;;;37.17;20.77;;;;;;;23.31;31.37;100937.69;4445020;32;20041;-74
2021/04/20 10:15:10;;;;;;;34.03;17.85;;;;;;;24.75;29.07;100941.75;3979320;32;15023134;-74
2021/04/20 10:18:00;;;;;;;31.62;17.10;;;;;;;24.75;29.07;100941.75;4429493;32;20037;-73
2021/04/20 10:20:37;;;;;;;28.80;17.67;;;;;;;24.27;29.73;100940.69;4431809;32;20041;-72
2021/04/20 10:23:42;;;;;;;35.00;17.67;;;;;;;24.65;29.16;100940.53;4431687;32;20092;-73
2021/04/20 10:28:54;;;;;;;33.17;16.95;;;;;;;25.21;27.98;100943.78;3977062;31;15707421;-72
2021/04/20 10:31:28;;;;;;;29.92;16.15;;;;;;;25.21;27.98;100943.78;4458504;32;20578;-73
2021/04/20 10:33:56;;;;;;;26.20;15.65;;;;;;;25.02;28.16;100942.91;4458881;32;20111;-73
2021/04/20 10:36:24;;;;;;;27.15;15.30;;;;;;;25.25;27.67;100945.06;4456275;32;20445;-73
2021/04/20 10:38:53;;;;;;;38.78;16.08;;;;;;;25.43;27.21;100940.00;4458317;32;20584;-73
2021/04/20 10:41:25;;;;;;;29.00;15.68;;;;;;;25.76;26.67;100946.22;4459155;32;20063;-73
2021/04/20 10:43:53;;;;;;;25.27;14.65;;;;;;;26.02;26.59;100942.84;4457384;32;20430;-73
2021/04/20 10:46:24;;;;;;;21.45;12.95;;;;;;;26.07;26.33;100933.31;4457315;32;20080;-73
2021/04/20 10:48:52;;;;;;;22.08;11.57;;;;;;;26.39;25.16;100940.81;4456851;32;20128;-74
2021/04/20 10:51:28;;;;;;;24.02;13.00;;;;;;;26.83;24.56;100936.56;4459391;32;20084;-75
2021/04/20 10:53:56;;;;;;;25.42;13.93;;;;;;;27.03;24.23;100933.13;4458279;32;20528;-73
2021/04/20 10:56:23;;;;;;;24.55;14.87;;;;;;;27.10;24.28;100935.34;4456706;32;20641;-75
2021/04/20 10:58:55;;;;;;;25.83;15.85;;;;;;;27.09;24.40;100928.03;4455798;32;20075;-74
2021/04/20 11:01:23;;;;;;;24.63;13.93;;;;;;;26.87;24.65;100929.13;4456195;32;20044;-73
2021/04/20 11:03:51;;;;;;;25.00;15.68;;;;;;;27.18;24.29;100919.72;4450480;32;20499;-73
2021/04/20 11:06:37;;;;;;;22.13;14.77;;;;;;;27.55;23.69;100926.75;4452496;32;20076;-73
2021/04/20 11:09:03;;;;;;;24.65;13.95;;;;;;;27.93;23.00;100926.06;4451570;32;20088;-73
2021/04/20 11:11:29;;;;;;;24.90;14.13;;;;;;;28.45;22.10;100916.56;4452540;32;20121;-73
2021/04/20 11:13:55;;;;;;;25.15;13.77;;;;;;;28.42;21.65;100921.37;4450429;32;20140;-73
2021/04/20 11:16:31;;;;;;;20.88;14.52;;;;;;;28.44;21.27;100915.03;4450130;32;20092;-73
2021/04/20 11:19:03;;;;;;;24.17;14.52;;;;;;;27.58;21.79;100929.31;4450064;32;20156;-73
2021/04/20 11:21:35;;;;;;;24.15;14.63;;;;;;;27.43;22.33;100920.41;4450947;32;20451;-72
2021/04/20 11:24:15;;;;;;;22.95;14.10;;;;;;;27.03;22.96;100916.53;4447498;32;20492;-73
2021/04/20 11:26:45;;;;;;;26.42;14.55;;;;;;;27.05;22.92;100907.31;4449567;32;20484;-73
2021/04/20 11:29:22;;;;;;;25.00;15.05;;;;;;;27.80;22.75;100911.56;4447890;32;20116;-73
2021/04/20 11:31:50;;;;;;;37.80;15.50;;;;;;;28.07;22.52;100915.28;4451428;32;20172;-74
2021/04/20 11:34:19;;;;;;;22.85;15.10;;;;;;;28.48;21.92;100907.59;4449303;32;20198;-73
2021/04/20 11:36:58;;;;;;;20.98;13.95;;;;;;;28.81;21.25;100908.94;4452238;32;20092;-73
2021/04/20 11:39:30;;;;;;;28.38;14.63;;;;;;;29.12;20.87;100912.97;4443097;32;20044;-73
2021/04/20 11:42:03;;;;;;;27.80;14.85;;;;;;;29.16;21.25;100914.16;4440163;32;20041;-73
2021/04/20 11:44:39;;;;;;;23.83;13.07;;;;;;;29.32;20.69;100909.31;4441257;32;20051;-73
2021/04/20 11:47:10;;;;;;;25.52;14.25;;;;;;;29.82;19.96;100906.62;4439745;32;20528;-72
2021/04/20 11:49:42;;;;;;;26.00;13.65;;;;;;;29.73;20.32;100915.09;4439013;32;20380;-72
2021/04/20 11:52:17;;;;;;;26.52;14.00;;;;;;;29.85;20.11;100914.22;4435735;32;20516;-73
2021/04/20 11:54:45;;;;;;;23.42;14.07;;;;;;;29.80;20.28;100914.38;4439006;32;20049;-72
2021/04/20 11:57:12;;;;;;;20.00;13.10;;;;;;;29.54;20.63;100908.72;4438123;32;20116;-72
2021/04/20 11:59:39;;;;;;;20.45;13.25;;;;;;;29.81;20.19;100904.31;4439945;32;20025;-72
2021/04/20 12:02:06;;;;;;;20.58;12.52;;;;;;;30.41;19.79;100911.31;4438707;32;20092;-72
2021/04/20 12:04:36;;;;;;;18.02;12.60;;;;;;;30.70;19.14;100906.19;4440280;32;20164;-72
2021/04/20 12:07:02;;;;;;;15.38;13.23;;;;;;;30.98;18.39;100908.25;4437288;32;20448;-72
2021/04/20 12:09:33;;;;;;;23.02;14.52;;;;;;;30.00;19.27;100904.84;4426802;32;20103;-72
2021/04/20 12:12:00;;;;;;;20.52;13.32;;;;;;;30.27;19.18;100901.16;4439288;32;20205;-73
2021/04/20 12:14:28;;;;;;;18.58;12.77;;;;;;;29.84;19.79;100898.16;4439446;32;20543;-73
2021/04/20 12:16:57;;;;;;;24.08;13.02;;;;;;;29.11;20.60;100894.78;4436641;32;20759;-73
2021/04/20 12:19:27;;;;;;;22.40;13.07;;;;;;;28.72;20.09;100910.16;4426557;32;20113;-72
2021/04/20 12:21:55;;;;;;;22.17;13.73;;;;;;;28.20;20.58;100895.78;4435538;32;20045;-73
2021/04/20 12:24:24;;;;;;;21.00;13.70;;;;;;;27.96;20.98;100896.03;4437830;32;20105;-73
2021/04/20 12:26:53;;;;;;;20.92;12.80;;;;;;;27.70;21.09;100893.06;4438826;32;20100;-72
2021/04/20 12:29:25;;;;;;;25.88;13.20;;;;;;;27.44;21.29;100898.81;4438622;32;20077;-73
2021/04/20 12:31:51;;;;;;;23.25;12.25;;;;;;;27.54;21.21;100888.37;4439299;32;20099;-74
2021/04/20 12:34:29;;;;;;;21.15;11.82;;;;;;;28.12;20.68;100886.22;4436467;32;20129;-73
2021/04/20 12:37:01;;;;;;;23.85;13.10;;;;;;;28.53;20.21;100892.19;4437052;32;20073;-74
2021/04/20 12:42:09;;;;;;;27.13;13.45;;;;;;;30.67;18.47;100892.81;3978903;32;15022920;-75
2021/04/20 12:44:41;;;;;;;18.23;12.45;;;;;;;30.67;18.47;100892.81;4428170;32;20377;-74